Time;durP1;ratioP1;P1;durP2;ratioP2;P2;SDS_P1;SDS_P2;PMS_P1;PMS_P2;Temp;Humidity;BMP_temperature;BMP_pressure;BME280_temperature;BME280_humidity;BME280_pressure;Samples;Min_cycle;Max_cycle;Signal;HPM_P1;HPM_P2
2022/01/31 00:00:31;;;;;;;19.27;4.67;;;5.80;99.90;;;;;;5104434;28;20197;-89
2022/01/31 00:03:05;;;;;;;20.70;4.50;;;5.90;99.90;;;;;;5104647;28;20269;-90
2022/01/31 00:05:39;;;;;;;15.23;4.30;;;5.90;99.90;;;;;;5105452;28;20259;-88
2022/01/31 00:08:09;;;;;;;21.70;4.30;;;5.90;99.90;;;;;;5103732;28;20201;-89
2022/01/31 00:10:54;;;;;;;15.37;3.83;;;6.00;99.90;;;;;;5105544;28;20201;-90
2022/01/31 00:14:09;;;;;;;22.40;5.93;;;6.00;99.90;;;;;;5103041;28;20546;-89
2022/01/31 00:16:40;;;;;;;24.67;6.27;;;5.90;99.90;;;;;;5105258;28;20204;-87
2022/01/31 00:19:12;;;;;;;18.67;4.33;;;5.90;99.90;;;;;;5105199;28;20625;-87
2022/01/31 00:21:45;;;;;;;20.77;4.57;;;5.90;99.90;;;;;;5104553;28;20635;-89
2022/01/31 00:24:12;;;;;;;19.03;4.17;;;6.00;99.90;;;;;;5103840;28;20213;-90
2022/01/31 00:27:05;;;;;;;15.27;4.03;;;6.00;99.90;;;;;;5104430;28;20535;-88
2022/01/31 00:29:41;;;;;;;16.63;4.03;;;6.00;99.90;;;;;;5102797;28;20732;-91
2022/01/31 00:32:13;;;;;;;16.93;4.03;;;6.10;99.90;;;;;;5103404;28;20196;-87
2022/01/31 00:34:53;;;;;;;18.40;4.63;;;6.20;99.90;;;;;;5103441;28;20233;-86
2022/01/31 00:37:27;;;;;;;20.90;4.43;;;6.30;99.90;;;;;;5104109;28;20215;-88
2022/01/31 00:40:00;;;;;;;17.57;3.73;;;6.30;99.90;;;;;;5102338;28;20552;-89
2022/01/31 00:42:33;;;;;;;14.10;3.63;;;6.40;99.90;;;;;;5103812;28;20307;-89
2022/01/31 00:45:24;;;;;;;15.73;4.20;;;6.30;99.90;;;;;;5103353;28;20190;-88
2022/01/31 00:48:02;;;;;;;15.40;3.60;;;6.40;99.90;;;;;;5100563;28;20204;-88
2022/01/31 00:50:39;;;;;;;11.87;3.83;;;6.40;99.90;;;;;;5101054;28;20214;-89
2022/01/31 00:53:06;;;;;;;21.03;3.87;;;6.40;99.90;;;;;;5105928;28;20230;-88
2022/01/31 00:55:36;;;;;;;16.90;3.90;;;6.50;99.90;;;;;;5102496;28;20307;-86
2022/01/31 00:58:05;;;;;;;17.77;3.20;;;6.50;99.90;;;;;;5098383;28;20190;-89
2022/01/31 01:00:55;;;;;;;7.87;2.70;;;6.50;99.90;;;;;;5098101;28;20201;-90
2022/01/31 01:03:25;;;;;;;18.57;3.70;;;6.30;99.90;;;;;;5098464;28;20225;-86
2022/01/31 01:05:53;;;;;;;16.93;3.43;;;6.30;99.90;;;;;;5097568;28;20212;-85
2022/01/31 01:08:23;;;;;;;14.67;3.70;;;6.20;99.90;;;;;;5098072;28;20193;-88
2022/01/31 01:10:52;;;;;;;18.50;3.80;;;6.20;99.90;;;;;;5100672;28;20307;-82
2022/01/31 01:13:21;;;;;;;16.37;3.43;;;6.20;99.90;;;;;;5097425;28;20307;-87
2022/01/31 01:15:55;;;;;;;16.10;4.00;;;6.10;99.90;;;;;;5097152;28;20185;-86
2022/01/31 01:18:25;;;;;;;18.80;3.93;;;6.00;99.90;;;;;;5097190;28;20201;-86
2022/01/31 01:20:55;;;;;;;19.13;4.20;;;6.00;99.90;;;;;;5096926;28;20227;-84
2022/01/31 01:23:32;;;;;;;13.23;3.87;;;5.90;99.90;;;;;;5096534;28;20190;-89
2022/01/31 01:26:01;;;;;;;20.03;4.50;;;6.00;99.90;;;;;;5095721;28;20189;-88
2022/01/31 01:28:34;;;;;;;18.70;4.70;;;5.90;99.90;;;;;;5097002;28;20189;-83
2022/01/31 01:31:04;;;;;;;19.10;3.90;;;5.90;99.90;;;;;;5096799;28;20192;-89
2022/01/31 01:33:39;;;;;;;11.43;3.10;;;5.80;99.90;;;;;;5096308;28;20205;-84
2022/01/31 01:36:07;;;;;;;20.77;4.27;;;5.80;99.90;;;;;;5096231;28;20189;-83
2022/01/31 01:38:37;;;;;;;15.73;3.60;;;5.70;99.90;;;;;;5096699;28;20193;-88
2022/01/31 01:41:05;;;;;;;16.70;3.80;;;5.80;99.90;;;;;;5096623;28;20202;-89
2022/01/31 01:43:38;;;;;;;17.07;4.27;;;5.80;99.90;;;;;;5096569;28;20200;-89
2022/01/31 01:46:09;;;;;;;20.10;4.53;;;5.80;99.90;;;;;;5096641;28;20205;-82
2022/01/31 01:48:37;;;;;;;17.73;3.83;;;5.70;99.90;;;;;;5096402;28;20201;-88
2022/01/31 01:51:07;;;;;;;19.17;3.97;;;5.70;99.90;;;;;;5096051;28;20287;-83
2022/01/31 01:53:35;;;;;;;19.20;4.37;;;5.70;99.90;;;;;;5095616;28;20649;-86
2022/01/31 01:56:05;;;;;;;12.90;3.50;;;5.70;99.90;;;;;;5095736;28;20211;-87
2022/01/31 01:58:38;;;;;;;11.40;3.40;;;5.80;99.90;;;;;;5096207;28;20912;-85
2022/01/31 02:01:11;;;;;;;11.43;3.97;;;5.80;99.90;;;;;;5096345;28;20244;-86
2022/01/31 02:03:40;;;;;;;11.70;3.40;;;5.80;99.90;;;;;;5095772;28;20221;-87
2022/01/31 02:06:08;;;;;;;18.00;3.27;;;5.80;99.90;;;;;;5095555;28;20201;-83
2022/01/31 02:08:40;;;;;;;11.10;3.33;;;5.80;99.90;;;;;;5095942;28;20185;-86
2022/01/31 02:11:08;;;;;;;14.50;3.73;;;5.90;99.90;;;;;;5095734;28;20256;-85
2022/01/31 02:13:36;;;;;;;10.80;2.90;;;5.90;99.90;;;;;;5095699;28;20209;-86
2022/01/31 02:16:11;;;;;;;7.50;3.47;;;6.00;99.90;;;;;;5095752;28;20267;-86
2022/01/31 02:18:45;;;;;;;7.23;2.77;;;6.00;99.90;;;;;;5094210;28;20586;-87
2022/01/31 02:21:14;;;;;;;10.87;3.70;;;6.00;99.90;;;;;;5095160;28;20274;-88
2022/01/31 02:23:44;;;;;;;11.77;4.40;;;6.10;99.90;;;;;;5093697;28;20430;-86
2022/01/31 02:26:13;;;;;;;6.23;3.27;;;6.20;99.90;;;;;;5095560;28;20213;-85
2022/01/31 02:28:45;;;;;;;7.13;2.43;;;6.30;99.90;;;;;;5095499;28;20197;-84
2022/01/31 02:31:14;;;;;;;5.20;2.57;;;6.30;99.90;;;;;;5095563;28;20189;-86
2022/01/31 02:33:47;;;;;;;4.93;2.40;;;6.30;99.90;;;;;;5095472;28;20217;-85
2022/01/31 02:36:15;;;;;;;5.70;2.50;;;6.40;99.90;;;;;;5095679;28;20212;-87
2022/01/31 02:38:42;;;;;;;8.30;1.97;;;6.30;99.90;;;;;;5096159;28;20322;-87
2022/01/31 02:41:12;;;;;;;2.10;1.47;;;6.40;99.90;;;;;;5095949;28;20231;-87
2022/01/31 02:43:39;;;;;;;1.37;1.20;;;6.40;99.90;;;;;;5098001;28;20224;-87
2022/01/31 02:46:06;;;;;;;2.47;1.33;;;6.30;99.90;;;;;;5099184;28;20256;-86
2022/01/31 02:48:39;;;;;;;3.93;2.10;;;6.40;99.90;;;;;;5101006;28;20205;-89
2022/01/31 02:51:10;;;;;;;7.57;2.43;;;6.50;99.90;;;;;;5100212;28;20197;-89
2022/01/31 02:53:41;;;;;;;8.73;2.90;;;6.60;99.90;;;;;;5099464;28;20213;-86
2022/01/31 02:56:11;;;;;;;15.07;3.50;;;6.70;99.90;;;;;;5095229;28;20190;-86
2022/01/31 02:58:40;;;;;;;12.52;4.70;;;6.80;99.90;;;;;;5093162;28;20441;-88
2022/01/31 03:01:14;;;;;;;10.97;3.73;;;6.90;99.90;;;;;;5095126;28;20193;-89
2022/01/31 03:03:42;;;;;;;14.37;3.97;;;6.90;99.90;;;;;;5094910;28;20208;-86
2022/01/31 03:06:10;;;;;;;15.30;3.70;;;7.00;99.90;;;;;;5094658;28;20207;-84
2022/01/31 03:08:46;;;;;;;15.20;4.07;;;7.10;99.90;;;;;;5094944;28;20204;-86
2022/01/31 03:11:15;;;;;;;11.30;3.53;;;7.10;99.90;;;;;;5094869;28;20201;-86
2022/01/31 03:13:44;;;;;;;10.10;3.13;;;7.20;99.90;;;;;;5095482;28;20240;-89
2022/01/31 03:16:20;;;;;;;12.13;3.33;;;7.30;99.90;;;;;;5094728;28;20236;-87
2022/01/31 03:18:50;;;;;;;11.20;2.63;;;7.30;99.90;;;;;;5094895;28;20185;-89
2022/01/31 03:21:20;;;;;;;10.97;2.20;;;7.30;99.90;;;;;;5094748;28;20205;-89
2022/01/31 03:23:54;;;;;;;15.70;3.23;;;7.50;99.90;;;;;;5094921;28;20201;-88
2022/01/31 03:26:27;;;;;;;9.37;2.53;;;7.40;99.90;;;;;;5094834;28;20208;-88
2022/01/31 03:29:00;;;;;;;12.97;2.60;;;7.50;99.90;;;;;;5094693;28;20209;-87
2022/01/31 03:31:28;;;;;;;17.40;2.50;;;7.40;99.90;;;;;;5094365;28;20201;-87
2022/01/31 03:33:57;;;;;;;10.47;3.00;;;7.50;99.90;;;;;;5093185;28;20452;-87
2022/01/31 03:36:29;;;;;;;11.10;2.70;;;7.50;99.90;;;;;;5094643;28;20189;-90
2022/01/31 03:39:00;;;;;;;14.70;2.20;;;7.40;99.90;;;;;;5094526;28;20197;-86
2022/01/31 03:41:30;;;;;;;12.90;1.87;;;7.30;99.90;;;;;;5094684;28;20217;-91
2022/01/31 03:44:10;;;;;;;12.67;2.37;;;7.20;99.90;;;;;;5094928;28;20193;-91
2022/01/31 03:46:50;;;;;;;7.13;2.27;;;7.30;99.90;;;;;;5094535;28;20188;-91
2022/01/31 03:49:18;;;;;;;12.20;2.97;;;7.10;99.90;;;;;;5094581;28;20193;-89
2022/01/31 03:51:47;;;;;;;10.77;2.87;;;7.00;99.90;;;;;;5094763;28;20212;-90
2022/01/31 03:54:16;;;;;;;9.63;1.93;;;7.00;99.90;;;;;;5092745;28;20262;-90
2022/01/31 03:56:45;;;;;;;13.27;2.10;;;7.00;99.90;;;;;;5094376;28;20200;-91
2022/01/31 03:59:13;;;;;;;8.93;1.57;;;7.00;99.90;;;;;;5094160;28;20209;-91
2022/01/31 04:01:43;;;;;;;10.83;1.53;;;6.90;99.90;;;;;;5094517;28;20204;-91
2022/01/31 04:04:13;;;;;;;8.20;1.97;;;7.00;99.90;;;;;;5093121;28;20205;-88
2022/01/31 04:06:43;;;;;;;9.53;2.20;;;7.00;99.90;;;;;;5094301;28;20607;-89
2022/01/31 04:09:17;;;;;;;9.43;1.63;;;7.00;99.90;;;;;;5094361;28;20223;-89
2022/01/31 04:11:47;;;;;;;13.37;2.70;;;6.90;99.90;;;;;;5094747;28;20207;-90
2022/01/31 04:14:17;;;;;;;6.33;2.03;;;6.90;99.90;;;;;;5094241;28;20228;-89
2022/01/31 04:16:51;;;;;;;10.93;2.23;;;6.90;99.90;;;;;;5094168;28;20202;-88
2022/01/31 04:19:21;;;;;;;5.30;1.47;;;6.80;99.90;;;;;;5094164;28;20206;-90
2022/01/31 04:21:51;;;;;;;9.47;1.87;;;6.80;99.90;;;;;;5075955;28;20204;-90
2022/01/31 04:24:36;;;;;;;8.63;1.73;;;6.80;99.90;;;;;;5093309;28;20201;-90
2022/01/31 04:27:06;;;;;;;7.33;1.87;;;6.70;99.90;;;;;;5094201;28;20201;-90
2022/01/31 04:29:40;;;;;;;10.77;2.23;;;6.70;99.90;;;;;;5094049;28;20262;-91
2022/01/31 04:32:12;;;;;;;6.43;1.93;;;6.70;99.90;;;;;;5094642;28;20197;-90
2022/01/31 04:34:43;;;;;;;5.33;1.80;;;6.70;99.90;;;;;;5094359;28;20657;-92
2022/01/31 04:37:20;;;;;;;10.40;2.00;;;6.70;99.90;;;;;;5094610;28;20201;-91
2022/01/31 04:39:48;;;;;;;5.00;1.83;;;6.80;99.90;;;;;;5094262;28;20770;-89
2022/01/31 04:42:22;;;;;;;6.97;1.70;;;6.90;99.90;;;;;;5094982;28;20659;-90
2022/01/31 04:44:58;;;;;;;11.27;2.40;;;7.00;99.90;;;;;;5097751;28;20432;-91
2022/01/31 04:47:32;;;;;;;7.57;1.83;;;7.10;99.90;;;;;;5098298;28;20205;-91
2022/01/31 04:49:58;;;;;;;10.73;2.03;;;7.00;99.90;;;;;;5098632;28;20197;-91
2022/01/31 04:52:29;;;;;;;7.43;1.70;;;7.10;99.90;;;;;;5098161;28;20201;-90
2022/01/31 04:54:57;;;;;;;9.37;2.00;;;7.10;99.90;;;;;;5098058;28;20656;-89
2022/01/31 04:57:25;;;;;;;7.60;1.70;;;7.00;99.90;;;;;;5098056;28;20207;-89
2022/01/31 04:59:55;;;;;;;7.07;1.77;;;7.10;99.90;;;;;;5097600;28;20185;-90
2022/01/31 05:02:27;;;;;;;6.10;2.10;;;7.10;99.90;;;;;;5098202;28;20569;-93
2022/01/31 05:04:57;;;;;;;8.53;2.27;;;7.10;99.90;;;;;;5097421;28;20240;-91
2022/01/31 05:07:27;;;;;;;13.23;2.27;;;7.00;99.90;;;;;;5098014;28;20686;-91
2022/01/31 05:10:01;;;;;;;7.57;2.13;;;7.00;99.90;;;;;;5098023;28;20205;-92
2022/01/31 05:12:34;;;;;;;6.37;1.63;;;7.00;99.90;;;;;;5098588;28;20205;-91
2022/01/31 05:15:05;;;;;;;5.00;1.40;;;7.00;99.90;;;;;;5097858;28;20593;-91
2022/01/31 05:17:34;;;;;;;5.67;1.97;;;7.00;99.90;;;;;;5098356;28;20201;-91
2022/01/31 05:20:05;;;;;;;8.88;3.03;;;7.00;99.90;;;;;;5097274;28;20453;-90
2022/01/31 05:22:34;;;;;;;8.87;2.10;;;7.10;99.90;;;;;;5098636;28;20266;-90
2022/01/31 05:25:06;;;;;;;9.33;2.10;;;7.10;99.90;;;;;;5098985;28;20675;-90
2022/01/31 05:27:36;;;;;;;10.60;2.30;;;7.10;99.90;;;;;;5099051;28;20205;-90
2022/01/31 05:30:06;;;;;;;11.53;1.80;;;7.00;99.90;;;;;;5097715;28;20201;-90
2022/01/31 05:32:39;;;;;;;7.97;2.57;;;7.00;99.90;;;;;;5098349;28;20636;-89
2022/01/31 05:35:09;;;;;;;9.87;2.10;;;7.00;99.90;;;;;;5098024;28;20231;-89
2022/01/31 05:37:37;;;;;;;11.23;2.40;;;7.00;99.90;;;;;;5098386;28;20205;-91
2022/01/31 05:40:10;;;;;;;11.60;2.80;;;7.00;99.90;;;;;;5099431;28;20636;-92
2022/01/31 05:42:43;;;;;;;10.50;2.40;;;7.10;99.90;;;;;;5099280;28;20219;-89
2022/01/31 05:45:12;;;;;;;14.27;2.33;;;7.10;99.90;;;;;;5098193;28;20209;-90
2022/01/31 05:47:52;;;;;;;11.50;2.57;;;7.10;99.90;;;;;;5099338;28;20197;-91
2022/01/31 05:50:19;;;;;;;6.43;2.10;;;7.10;99.90;;;;;;5098670;28;20205;-93
2022/01/31 05:52:52;;;;;;;12.73;2.80;;;7.10;99.90;;;;;;5099468;28;20249;-92
2022/01/31 05:55:21;;;;;;;10.35;2.55;;;7.00;99.90;;;;;;5098770;28;20469;-89
2022/01/31 05:58:02;;;;;;;8.83;2.23;;;7.10;99.90;;;;;;5099295;28;20227;-91
2022/01/31 06:00:28;;;;;;;10.37;2.40;;;7.10;99.90;;;;;;5099970;28;20228;-90
2022/01/31 06:03:22;;;;;;;9.67;2.90;;;7.00;99.90;;;;;;5100167;28;20205;-92
2022/01/31 06:05:52;;;;;;;13.57;2.37;;;7.00;99.90;;;;;;5100131;28;20190;-90
2022/01/31 06:08:25;;;;;;;13.03;2.00;;;7.00;99.90;;;;;;5101881;28;20578;-91
2022/01/31 06:10:53;;;;;;;14.10;2.10;;;7.00;99.90;;;;;;5101699;28;20209;-89
2022/01/31 06:13:27;;;;;;;9.37;2.93;;;7.00;99.90;;;;;;5097113;28;20221;-88
2022/01/31 06:15:54;;;;;;;11.30;2.13;;;7.00;99.90;;;;;;5103119;28;20225;-92
2022/01/31 06:18:27;;;;;;;9.10;2.00;;;7.00;99.90;;;;;;5101299;28;20202;-92
2022/01/31 06:20:56;;;;;;;14.57;2.43;;;7.10;99.90;;;;;;5099894;28;20224;-92
2022/01/31 06:23:58;;;;;;;11.07;2.50;;;7.10;99.90;;;;;;5097138;28;20209;-92
2022/01/31 06:26:30;;;;;;;8.30;2.10;;;7.20;99.90;;;;;;5097180;28;20204;-92
2022/01/31 06:28:56;;;;;;;14.53;2.67;;;7.10;99.90;;;;;;5097597;28;20536;-90
2022/01/31 06:31:35;;;;;;;16.13;2.97;;;7.00;99.90;;;;;;5097128;28;20517;-92
2022/01/31 06:34:05;;;;;;;13.70;3.33;;;7.10;99.90;;;;;;5097761;28;20196;-92
2022/01/31 06:36:38;;;;;;;10.80;2.27;;;7.10;99.90;;;;;;5099681;28;20235;-95
2022/01/31 06:39:08;;;;;;;14.87;3.00;;;7.20;99.90;;;;;;5099550;28;20275;-94
2022/01/31 06:41:43;;;;;;;7.00;1.90;;;7.10;99.90;;;;;;5099519;28;20216;-93
2022/01/31 06:44:13;;;;;;;9.40;2.40;;;7.10;99.90;;;;;;5099173;28;20215;-90
2022/01/31 06:46:57;;;;;;;5.03;1.73;;;7.20;99.90;;;;;;5103717;28;20211;-91
2022/01/31 06:49:30;;;;;;;13.53;2.53;;;7.20;99.90;;;;;;5096582;28;20711;-91
2022/01/31 06:52:04;;;;;;;8.90;2.27;;;7.20;99.90;;;;;;5098746;28;20640;-92
2022/01/31 06:54:35;;;;;;;5.83;1.90;;;7.20;99.90;;;;;;5105371;28;20655;-93
2022/01/31 06:57:06;;;;;;;14.60;2.83;;;7.20;99.90;;;;;;5099176;28;20260;-92
2022/01/31 06:59:39;;;;;;;11.13;2.83;;;7.20;99.90;;;;;;5100965;28;20208;-92
2022/01/31 07:02:13;;;;;;;16.47;2.93;;;7.20;99.90;;;;;;5100074;28;20211;-91
2022/01/31 07:04:43;;;;;;;14.70;2.70;;;7.20;99.90;;;;;;5098225;28;20185;-92
2022/01/31 07:07:30;;;;;;;7.45;2.38;;;7.20;99.90;;;;;;5099038;28;20438;-92
2022/01/31 07:10:04;;;;;;;10.97;2.50;;;7.20;99.90;;;;;;5098418;28;20201;-91
2022/01/31 07:12:37;;;;;;;15.40;2.50;;;7.20;99.90;;;;;;5096821;28;20215;-92
2022/01/31 07:15:08;;;;;;;9.17;2.67;;;7.20;99.90;;;;;;5101484;28;20623;-93
2022/01/31 07:17:38;;;;;;;11.07;2.17;;;7.20;99.90;;;;;;5098509;28;20208;-89
2022/01/31 07:20:21;;;;;;;7.90;2.13;;;7.30;99.90;;;;;;5101741;28;20209;-92
2022/01/31 07:23:00;;;;;;;10.63;1.93;;;7.30;99.90;;;;;;5103784;28;20201;-93
2022/01/31 07:25:35;;;;;;;15.30;2.57;;;7.20;99.90;;;;;;5099291;28;20201;-93
2022/01/31 07:28:11;;;;;;;13.00;2.60;;;7.20;99.90;;;;;;5100768;28;20241;-92
2022/01/31 07:30:44;;;;;;;5.93;2.07;;;7.20;99.90;;;;;;5103585;28;20260;-93
2022/01/31 07:33:16;;;;;;;11.67;2.30;;;7.20;99.90;;;;;;5098795;28;20203;-92
2022/01/31 07:35:47;;;;;;;7.60;2.00;;;7.30;99.90;;;;;;5099772;28;20229;-92
2022/01/31 07:38:22;;;;;;;10.83;2.57;;;7.30;99.90;;;;;;5077979;28;20577;-91
2022/01/31 07:40:57;;;;;;;10.07;2.80;;;7.30;99.90;;;;;;5077732;28;20231;-92
2022/01/31 07:43:34;;;;;;;8.67;1.87;;;7.20;99.90;;;;;;5079394;28;20186;-93
2022/01/31 07:46:05;;;;;;;9.33;2.77;;;7.20;99.90;;;;;;5079850;28;20225;-92
2022/01/31 07:48:35;;;;;;;13.67;2.20;;;7.10;99.90;;;;;;5078411;28;20691;-91
2022/01/31 07:51:08;;;;;;;8.03;2.07;;;7.20;99.90;;;;;;5088750;28;20277;-91
2022/01/31 07:53:37;;;;;;;11.23;2.30;;;7.20;99.90;;;;;;5099876;28;20203;-93
2022/01/31 07:56:09;;;;;;;9.10;1.67;;;7.20;99.90;;;;;;5097589;28;20237;-96
2022/01/31 07:58:43;;;;;;;5.87;1.90;;;7.20;99.90;;;;;;5097743;28;20212;-93
2022/01/31 08:01:11;;;;;;;7.50;1.70;;;7.20;99.90;;;;;;5099161;28;20191;-94
2022/01/31 08:03:41;;;;;;;13.67;2.63;;;7.20;99.90;;;;;;5097202;28;20199;-92
2022/01/31 08:06:15;;;;;;;9.40;2.50;;;7.20;99.90;;;;;;5096563;28;20208;-92
2022/01/31 08:08:45;;;;;;;15.40;2.67;;;7.20;99.90;;;;;;5095577;28;20272;-90
2022/01/31 08:11:15;;;;;;;12.47;2.53;;;7.20;99.90;;;;;;5095068;28;20194;-90
2022/01/31 08:13:45;;;;;;;10.37;2.63;;;7.10;99.90;;;;;;5095483;28;20278;-89
2022/01/31 08:16:18;;;;;;;11.93;2.23;;;7.10;99.90;;;;;;5094605;28;20252;-91
2022/01/31 08:18:50;;;;;;;11.30;2.17;;;7.10;99.90;;;;;;5094234;28;20204;-90
2022/01/31 08:21:20;;;;;;;15.00;3.40;;;7.10;99.90;;;;;;5093722;28;20425;-89
2022/01/31 08:23:50;;;;;;;10.77;2.23;;;7.20;99.90;;;;;;5095300;28;20219;-90
2022/01/31 08:26:22;;;;;;;9.63;2.27;;;7.20;99.90;;;;;;5095090;28;20613;-88
2022/01/31 08:29:00;;;;;;;15.77;2.33;;;7.20;99.90;;;;;;5095375;28;20205;-91
2022/01/31 08:31:33;;;;;;;7.03;1.50;;;7.10;99.90;;;;;;5095069;28;20224;-89
2022/01/31 08:34:19;;;;;;;10.00;2.30;;;7.10;99.90;;;;;;5092837;28;20644;-82
2022/01/31 08:36:46;;;;;;;14.23;2.30;;;7.10;99.90;;;;;;5092624;28;20273;-82
2022/01/31 08:39:17;;;;;;;13.27;2.73;;;7.10;99.90;;;;;;5093205;28;20686;-84
2022/01/31 08:41:45;;;;;;;8.97;1.70;;;7.10;99.90;;;;;;5093089;28;20561;-82
2022/01/31 08:44:18;;;;;;;11.50;2.87;;;7.10;99.90;;;;;;5093527;28;20208;-91
2022/01/31 08:46:46;;;;;;;7.17;2.20;;;7.10;99.90;;;;;;5093859;28;20545;-83
2022/01/31 08:49:14;;;;;;;20.30;2.83;;;7.10;99.90;;;;;;5093520;28;20259;-86
2022/01/31 08:51:42;;;;;;;16.23;3.40;;;7.00;99.90;;;;;;5093079;28;20207;-91
2022/01/31 08:54:09;;;;;;;7.30;2.20;;;7.00;99.90;;;;;;5096762;28;20188;-87
2022/01/31 08:56:40;;;;;;;8.93;2.30;;;7.00;99.90;;;;;;5094352;28;20316;-92
2022/01/31 08:59:08;;;;;;;9.90;3.07;;;7.00;99.90;;;;;;5091743;28;20603;-86
2022/01/31 09:01:37;;;;;;;13.63;2.90;;;7.00;99.90;;;;;;5094383;28;20193;-86
2022/01/31 09:04:08;;;;;;;12.10;2.87;;;7.00;99.90;;;;;;5091326;28;20205;-91
2022/01/31 09:06:36;;;;;;;14.57;2.73;;;7.00;99.90;;;;;;5094495;28;20213;-91
2022/01/31 09:09:08;;;;;;;6.40;2.10;;;7.10;99.90;;;;;;5096199;28;20254;-82
2022/01/31 09:11:37;;;;;;;10.30;2.57;;;7.10;99.90;;;;;;5093585;28;20247;-82
2022/01/31 09:14:04;;;;;;;10.63;2.60;;;7.10;99.90;;;;;;5095748;28;20232;-88
2022/01/31 09:16:31;;;;;;;12.77;2.93;;;7.10;99.90;;;;;;5091317;28;20723;-82
2022/01/31 09:18:59;;;;;;;12.23;3.33;;;7.00;99.90;;;;;;5093592;28;20193;-84
2022/01/31 09:21:27;;;;;;;11.67;2.67;;;7.10;99.90;;;;;;5093682;28;20209;-81
2022/01/31 09:23:54;;;;;;;12.43;2.03;;;7.10;99.90;;;;;;5092914;28;20679;-82
2022/01/31 09:26:23;;;;;;;10.33;2.60;;;7.00;99.90;;;;;;5093126;28;20219;-84
2022/01/31 09:28:55;;;;;;;20.23;3.53;;;7.00;99.90;;;;;;5095275;28;20196;-87
2022/01/31 09:31:23;;;;;;;13.63;2.40;;;7.00;99.90;;;;;;5093386;28;20316;-81
2022/01/31 09:33:51;;;;;;;16.27;2.90;;;7.00;99.90;;;;;;5086692;28;20198;-76
2022/01/31 09:36:19;;;;;;;14.70;2.70;;;7.00;99.90;;;;;;5095077;28;20248;-81
2022/01/31 09:38:46;;;;;;;13.67;2.53;;;7.00;99.90;;;;;;5094269;28;20213;-83
2022/01/31 09:41:16;;;;;;;9.30;2.33;;;7.00;99.90;;;;;;5095604;28;20204;-81
2022/01/31 09:49:22;;;;;;;10.77;3.07;;;7.00;99.90;;;;;;5094448;28;20243;-82
2022/01/31 09:51:51;;;;;;;10.80;2.60;;;7.00;99.90;;;;;;5094447;28;20204;-80
2022/01/31 09:54:18;;;;;;;10.47;2.60;;;7.00;99.90;;;;;;5094744;28;20208;-83
2022/01/31 09:56:47;;;;;;;12.67;2.87;;;7.10;99.90;;;;;;5092525;28;20244;-84
2022/01/31 09:59:16;;;;;;;12.40;2.73;;;7.00;99.90;;;;;;5095292;28;20190;-83
2022/01/31 10:01:47;;;;;;;15.50;2.70;;;7.10;99.90;;;;;;5095074;28;20208;-82
2022/01/31 10:04:18;;;;;;;11.87;2.67;;;7.10;99.90;;;;;;5093851;28;20204;-82
2022/01/31 10:06:47;;;;;;;17.83;3.07;;;7.00;99.90;;;;;;5094466;28;20239;-80
2022/01/31 10:09:18;;;;;;;14.10;3.00;;;7.10;99.90;;;;;;5095336;28;20530;-82
2022/01/31 10:11:49;;;;;;;11.83;2.10;;;7.10;99.90;;;;;;5095173;28;20221;-80
2022/01/31 10:17:21;;;;;;;14.73;2.57;;;7.20;99.90;;;;;;5094849;28;20274;-84
2022/01/31 10:19:48;;;;;;;8.30;1.93;;;7.20;99.90;;;;;;5094841;28;20204;-83
2022/01/31 10:22:18;;;;;;;9.20;2.47;;;7.20;99.90;;;;;;5095000;28;20185;-83
2022/01/31 10:24:49;;;;;;;9.83;2.67;;;7.30;99.90;;;;;;5095145;28;20280;-84
2022/01/31 10:27:19;;;;;;;11.20;2.80;;;7.20;99.90;;;;;;5094537;28;20205;-82
2022/01/31 10:29:49;;;;;;;16.23;3.30;;;7.50;99.90;;;;;;5093966;28;20204;-82
2022/01/31 10:32:22;;;;;;;10.47;2.87;;;7.40;99.90;;;;;;5096758;28;20194;-85
2022/01/31 10:34:52;;;;;;;17.27;3.07;;;7.50;99.90;;;;;;5092579;28;20193;-85
2022/01/31 10:37:22;;;;;;;14.20;3.37;;;7.40;99.90;;;;;;5095458;28;20225;-82
2022/01/31 10:45:35;;;;;;;13.27;2.70;;;7.20;99.90;;;;;;5094724;28;20270;-86
2022/01/31 10:53:59;;;;;;;12.57;2.77;;;7.20;99.90;;;;;;5094272;28;20257;-86
2022/01/31 10:56:37;;;;;;;10.57;2.63;;;7.20;99.90;;;;;;5093875;28;20209;-76
2022/01/31 10:59:07;;;;;;;19.13;2.97;;;7.20;99.90;;;;;;5093808;28;20208;-76
2022/01/31 11:01:33;;;;;;;15.37;2.90;;;7.20;99.90;;;;;;5093969;28;20249;-76
2022/01/31 11:04:04;;;;;;;10.47;3.00;;;7.20;99.90;;;;;;5094032;28;20209;-85
2022/01/31 11:06:32;;;;;;;13.07;2.70;;;7.20;99.90;;;;;;5092767;28;20649;-77
2022/01/31 11:09:07;;;;;;;11.37;2.70;;;7.10;99.90;;;;;;5091517;28;20205;-84
2022/01/31 11:11:37;;;;;;;13.00;3.00;;;7.10;99.90;;;;;;5093966;28;20200;-79
2022/01/31 11:14:06;;;;;;;16.57;3.07;;;7.10;99.90;;;;;;5093673;28;20225;-77
2022/01/31 11:16:33;;;;;;;13.80;2.63;;;7.20;99.90;;;;;;5093232;28;20563;-80
2022/01/31 11:19:06;;;;;;;12.43;2.23;;;7.30;99.90;;;;;;5093950;28;20205;-77
2022/01/31 11:21:35;;;;;;;13.23;3.00;;;7.30;99.90;;;;;;5093972;28;20224;-80
2022/01/31 11:24:03;;;;;;;14.33;2.70;;;7.30;99.90;;;;;;5093786;28;20617;-80
2022/01/31 11:26:39;;;;;;;14.37;2.50;;;7.20;99.90;;;;;;5093510;28;20216;-81
2022/01/31 11:29:08;;;;;;;10.93;2.17;;;7.10;99.90;;;;;;5093554;28;20204;-76
2022/01/31 11:31:37;;;;;;;9.80;2.80;;;7.10;99.90;;;;;;5092503;28;20208;-80
2022/01/31 11:34:05;;;;;;;10.70;2.03;;;7.00;99.90;;;;;;5093035;28;20208;-81
2022/01/31 11:36:35;;;;;;;16.03;3.00;;;7.00;99.90;;;;;;5093957;28;20189;-78
2022/01/31 11:39:05;;;;;;;15.90;3.00;;;7.00;99.90;;;;;;5092664;28;20210;-77
2022/01/31 11:41:33;;;;;;;14.70;2.83;;;7.00;99.90;;;;;;5091599;28;20251;-78
2022/01/31 11:44:07;;;;;;;13.67;3.40;;;6.90;99.90;;;;;;5093168;28;20197;-82
2022/01/31 11:46:35;;;;;;;9.13;2.30;;;6.60;99.90;;;;;;5092386;28;20196;-82
2022/01/31 11:49:09;;;;;;;11.77;3.73;;;6.10;99.90;;;;;;5086625;28;20201;-79
2022/01/31 11:51:50;;;;;;;17.60;3.50;;;6.10;99.90;;;;;;5092484;28;20636;-76
2022/01/31 11:54:23;;;;;;;13.23;2.70;;;6.10;99.90;;;;;;5092687;28;20205;-75
2022/01/31 11:56:52;;;;;;;13.33;2.43;;;6.20;99.90;;;;;;5092447;28;20228;-76
2022/01/31 11:59:27;;;;;;;12.63;3.10;;;6.20;99.90;;;;;;5092693;28;20262;-75
2022/01/31 12:01:58;;;;;;;13.43;2.27;;;6.10;99.90;;;;;;5091985;28;20280;-80
2022/01/31 12:04:32;;;;;;;13.60;3.30;;;6.20;99.90;;;;;;5090562;28;20197;-76
2022/01/31 12:06:59;;;;;;;11.57;2.60;;;6.30;99.90;;;;;;5092943;28;20227;-76
2022/01/31 12:09:28;;;;;;;10.60;3.03;;;6.30;99.90;;;;;;5092990;28;20225;-77
2022/01/31 12:12:00;;;;;;;21.03;3.67;;;6.50;99.90;;;;;;5092793;28;20577;-76
2022/01/31 12:14:42;;;;;;;11.87;2.80;;;6.70;99.90;;;;;;5092831;28;20233;-81
2022/01/31 12:17:39;;;;;;;15.47;3.33;;;6.80;99.90;;;;;;5093218;28;20274;-79
2022/01/31 12:20:15;;;;;;;12.33;2.73;;;6.90;99.90;;;;;;5085827;28;20208;-77
2022/01/31 12:22:47;;;;;;;13.33;2.70;;;6.90;99.90;;;;;;5093102;28;20305;-79
2022/01/31 12:25:29;;;;;;;15.10;2.97;;;7.10;99.90;;;;;;5093053;28;20287;-77
2022/01/31 12:27:58;;;;;;;16.17;2.80;;;7.00;99.90;;;;;;5092608;28;20659;-75
2022/01/31 12:30:35;;;;;;;16.87;3.23;;;6.90;99.90;;;;;;5092408;28;20197;-79
2022/01/31 12:33:02;;;;;;;10.33;2.47;;;6.90;99.90;;;;;;5092287;28;20201;-77
2022/01/31 12:35:34;;;;;;;15.03;2.20;;;6.80;99.90;;;;;;5091866;28;20200;-81
2022/01/31 12:38:03;;;;;;;15.73;2.97;;;6.90;99.90;;;;;;5092285;28;20233;-78
2022/01/31 12:40:33;;;;;;;15.77;3.47;;;6.90;99.90;;;;;;5091636;28;20194;-81
2022/01/31 12:46:18;;;;;;;15.00;3.10;;;6.80;99.90;;;;;;5092650;28;20220;-83
2022/01/31 12:49:07;;;;;;;17.00;3.43;;;6.80;99.90;;;;;;5092902;28;20194;-78
2022/01/31 12:51:56;;;;;;;10.20;3.47;;;6.80;99.90;;;;;;5092445;28;20193;-78
2022/01/31 12:54:23;;;;;;;14.60;3.13;;;6.70;99.90;;;;;;5092437;28;20232;-78
2022/01/31 12:56:52;;;;;;;16.27;3.53;;;6.70;99.90;;;;;;5091763;28;20213;-80
2022/01/31 12:59:19;;;;;;;10.63;2.53;;;6.70;99.90;;;;;;5092352;28;20300;-81
2022/01/31 13:01:49;;;;;;;17.30;3.90;;;6.70;99.90;;;;;;5091660;28;20664;-75
2022/01/31 13:04:20;;;;;;;12.90;3.43;;;6.70;99.90;;;;;;5095088;28;20205;-78
2022/01/31 13:06:51;;;;;;;14.37;2.77;;;6.60;99.90;;;;;;5096329;28;20189;-87
2022/01/31 13:09:22;;;;;;;13.43;3.23;;;6.60;99.90;;;;;;5096893;28;20197;-83
2022/01/31 13:11:55;;;;;;;21.60;4.20;;;6.60;99.90;;;;;;5096407;28;20586;-85
2022/01/31 13:14:25;;;;;;;16.13;3.57;;;6.70;99.90;;;;;;5096699;28;20208;-86
2022/01/31 13:17:00;;;;;;;12.67;2.80;;;6.80;99.90;;;;;;5096599;28;20211;-85
2022/01/31 13:19:33;;;;;;;16.20;3.43;;;6.80;99.90;;;;;;5096766;28;20193;-80
2022/01/31 13:22:02;;;;;;;19.80;4.00;;;6.90;99.90;;;;;;5096585;28;20190;-88
2022/01/31 13:24:36;;;;;;;17.03;4.03;;;6.80;99.90;;;;;;5096492;28;20211;-82
2022/01/31 13:27:04;;;;;;;13.77;3.03;;;6.80;99.90;;;;;;5095695;28;20216;-79
2022/01/31 13:29:40;;;;;;;25.37;4.50;;;6.80;99.90;;;;;;5096383;28;20213;-76
2022/01/31 13:32:21;;;;;;;20.33;3.90;;;6.90;99.90;;;;;;5096159;28;20215;-85
2022/01/31 13:34:51;;;;;;;9.70;3.07;;;6.90;99.90;;;;;;5096311;28;20197;-81
2022/01/31 13:37:46;;;;;;;18.63;3.90;;;6.80;99.90;;;;;;5095264;28;20232;-80